createdAt,value
2023-03-18T06:03:02.069Z,86.88
2023-03-18T06:05:39.923Z,87.75
2023-03-18T06:08:09.975Z,87.66
2023-03-18T06:10:46.916Z,87.21
2023-03-18T06:13:16.864Z,87.81
2023-03-18T06:15:52.987Z,87.82
2023-03-18T06:18:25.567Z,87.33
2023-03-18T06:21:02.922Z,87.69
2023-03-18T06:23:39.948Z,87.85
2023-03-18T06:26:09.963Z,88.15
2023-03-18T06:28:46.970Z,88.19
2023-03-18T06:31:17.205Z,88.69
2023-03-18T06:33:55.979Z,89.04
2023-03-18T06:36:26.673Z,88.67
2023-03-18T06:39:02.995Z,88.70
2023-03-18T06:41:40.032Z,88.81
2023-03-18T06:44:10.069Z,89.30
2023-03-18T06:46:46.960Z,89.43
2023-03-18T06:49:19.942Z,89.09
2023-03-18T06:51:57.020Z,89.82
2023-03-18T06:54:34.064Z,90.05
2023-03-18T06:57:04.186Z,89.93
2023-03-18T06:59:41.028Z,89.83
2023-03-18T07:02:12.771Z,89.34
2023-03-18T07:04:51.992Z,90.47
2023-03-18T07:07:22.315Z,90.61
2023-03-18T07:09:58.995Z,90.02
2023-03-18T07:12:30.126Z,90.58
2023-03-18T07:15:07.083Z,90.68
2023-03-18T07:17:37.413Z,90.58
2023-03-18T07:20:18.077Z,90.20
2023-03-18T07:22:56.011Z,90.13
2023-03-18T07:25:26.018Z,90.37
2023-03-18T07:28:03.067Z,90.24
2023-03-18T07:30:33.320Z,89.93
2023-03-18T07:33:10.117Z,88.90
2023-03-18T07:35:43.076Z,87.48
2023-03-18T07:38:21.065Z,86.57
2023-03-18T07:40:51.399Z,84.61
2023-03-18T07:43:28.081Z,82.52
2023-03-18T07:45:58.762Z,80.79
2023-03-18T07:48:35.063Z,78.72
2023-03-18T07:51:08.682Z,76.11
2023-03-18T07:53:46.174Z,73.85
2023-03-18T07:56:23.119Z,72.60
2023-03-18T07:58:53.568Z,71.20
2023-03-18T08:01:30.060Z,69.75
2023-03-18T08:04:00.167Z,67.82
2023-03-18T08:06:39.086Z,65.35
2023-03-18T08:09:10.687Z,64.93
2023-03-18T08:11:47.064Z,64.31
2023-03-18T08:14:17.517Z,63.19
2023-03-18T08:16:54.164Z,61.55
2023-03-18T08:19:24.315Z,60.62
2023-03-18T08:22:04.161Z,58.61
2023-03-18T08:24:34.234Z,59.29
2023-03-18T08:27:11.140Z,59.22
2023-03-18T08:29:41.129Z,58.37
2023-03-18T08:32:19.154Z,57.98
2023-03-18T08:34:49.410Z,56.55
2023-03-18T08:37:29.118Z,55.21
2023-03-18T08:40:06.166Z,54.66
2023-03-18T08:42:36.147Z,54.32
2023-03-18T08:45:14.196Z,55.29
2023-03-18T08:47:51.236Z,57.16
2023-03-18T08:50:21.526Z,57.76
2023-03-18T08:53:00.186Z,57.95
2023-03-18T08:55:34.498Z,57.39
2023-03-18T08:58:12.205Z,57.66
2023-03-18T09:00:51.238Z,56.43
2023-03-18T09:03:21.633Z,55.83
2023-03-18T09:05:59.206Z,54.92
2023-03-18T09:08:39.219Z,54.23
2023-03-18T09:11:10.011Z,54.26
2023-03-18T09:13:47.225Z,53.48
2023-03-18T09:16:17.446Z,52.87
2023-03-18T09:18:54.245Z,51.50
2023-03-18T09:21:24.203Z,51.38
2023-03-18T09:24:03.239Z,50.55
2023-03-18T09:26:33.265Z,50.07
2023-03-18T09:29:10.257Z,50.11
2023-03-18T09:31:40.361Z,51.29
2023-03-18T09:34:20.311Z,52.19
2023-03-18T09:36:51.308Z,52.10
2023-03-18T09:39:31.254Z,52.80
2023-03-18T09:42:18.001Z,52.94
2023-03-18T09:44:57.247Z,52.79
2023-03-18T09:47:52.297Z,51.08
2023-03-18T09:50:44.227Z,51.17
2023-03-18T09:53:24.197Z,51.72
2023-03-18T09:56:08.254Z,49.63
2023-03-18T09:58:59.304Z,49.54
2023-03-18T10:01:31.426Z,49.67
2023-03-18T10:04:14.556Z,48.86
2023-03-18T10:06:48.358Z,48.92
2023-03-18T10:09:30.267Z,48.28
2023-03-18T10:12:14.569Z,46.57
2023-03-18T10:14:56.292Z,46.71
2023-03-18T10:17:33.138Z,45.90
2023-03-18T10:20:14.313Z,46.76
2023-03-18T10:23:06.300Z,47.40
2023-03-18T10:25:49.308Z,48.28
2023-03-18T10:29:05.035Z,48.41
2023-03-18T10:32:05.284Z,48.75
2023-03-18T10:34:44.378Z,50.33
2023-03-18T10:37:33.308Z,50.27
2023-03-18T10:40:04.435Z,51.25
2023-03-18T10:42:42.366Z,51.71
2023-03-18T10:45:32.471Z,51.44
2023-03-18T10:48:17.339Z,51.40
2023-03-18T10:50:54.748Z,51.76
2023-03-18T10:53:38.353Z,53.11
2023-03-18T10:56:18.375Z,53.58
2023-03-18T10:58:49.306Z,53.99
2023-03-18T11:01:32.409Z,54.97
2023-03-18T11:04:06.750Z,55.03
2023-03-18T11:06:51.312Z,56.07
2023-03-18T11:09:24.209Z,55.61
2023-03-18T11:12:07.390Z,56.64
2023-03-18T11:14:40.436Z,57.30
2023-03-18T11:17:32.364Z,57.86
2023-03-18T11:20:11.456Z,57.99
2023-03-18T11:22:55.428Z,57.56
2023-03-18T11:25:35.393Z,57.85
2023-03-18T11:28:09.003Z,57.52
2023-03-18T11:30:57.463Z,58.56
2023-03-18T11:33:43.401Z,59.13
2023-03-18T11:36:20.548Z,58.46
2023-03-18T11:39:07.413Z,58.42
2023-03-18T11:41:42.627Z,58.42
2023-03-18T11:44:27.372Z,58.26
2023-03-18T11:47:04.536Z,58.78
2023-03-18T11:49:43.471Z,59.18
2023-03-18T11:52:34.167Z,58.89
2023-03-18T11:55:34.691Z,58.48
2023-03-18T11:58:38.447Z,58.68
2023-03-18T12:01:17.596Z,58.80
2023-03-18T12:04:12.461Z,58.44
2023-03-18T12:06:57.242Z,58.04
2023-03-18T12:09:43.449Z,58.18
2023-03-18T12:12:47.477Z,58.50
2023-03-18T12:15:28.292Z,57.53
2023-03-18T12:18:17.480Z,57.06
2023-03-18T12:20:53.409Z,57.03
2023-03-18T12:24:05.471Z,58.16
2023-03-18T12:26:43.971Z,58.03
2023-03-18T12:29:50.460Z,59.65
2023-03-18T12:32:32.785Z,60.40
2023-03-18T12:35:44.454Z,61.04
2023-03-18T12:39:08.091Z,60.88
2023-03-18T12:41:59.470Z,61.32
2023-03-18T12:44:46.691Z,61.56
2023-03-18T12:47:30.528Z,61.88
2023-03-18T12:50:05.668Z,61.16
2023-03-18T12:52:50.504Z,61.41
2023-03-18T12:55:27.031Z,61.38
2023-03-18T12:58:10.500Z,60.61
2023-03-18T13:00:48.067Z,60.16
2023-03-18T13:03:40.538Z,59.40
2023-03-18T13:06:17.344Z,58.45
2023-03-18T13:09:10.548Z,58.39
2023-03-18T13:12:09.576Z,58.22
2023-03-18T13:15:01.314Z,57.91
2023-03-18T13:17:43.502Z,57.42
2023-03-18T13:20:24.548Z,58.68
2023-03-18T13:23:18.548Z,58.38
2023-03-18T13:26:04.218Z,57.15
2023-03-18T13:29:07.662Z,56.93
2023-03-18T13:31:55.014Z,56.87
2023-03-18T13:35:17.567Z,57.71
2023-03-18T13:38:21.778Z,57.11
2023-03-18T13:41:17.628Z,56.26
2023-03-18T13:43:51.805Z,56.97
2023-03-18T13:46:39.619Z,56.22
2023-03-18T13:49:29.581Z,56.09
2023-03-18T13:52:02.146Z,56.27
2023-03-18T13:54:47.957Z,55.98
2023-03-18T13:57:47.905Z,57.25
2023-03-18T14:00:49.627Z,57.47
